createdAt,value
2022-09-07T00:00:52.643Z,7.30
2022-09-07T00:03:20.318Z,7.30
2022-09-07T00:05:49.709Z,6.60
2022-09-07T00:08:18.425Z,7.55
2022-09-07T00:11:00.141Z,7.13
2022-09-07T00:13:29.607Z,7.13
2022-09-07T00:15:56.989Z,6.68
2022-09-07T00:18:24.399Z,7.32
2022-09-07T00:21:06.719Z,7.70
2022-09-07T00:23:35.289Z,7.72
2022-09-07T00:26:08.310Z,6.93
2022-09-07T00:28:36.333Z,7.07
2022-09-07T00:31:05.017Z,6.95
2022-09-07T00:33:31.991Z,7.57
2022-09-07T00:35:59.339Z,6.78
2022-09-07T00:38:26.568Z,6.38
2022-09-07T00:40:53.763Z,7.07
2022-09-07T00:43:58.250Z,7.35
2022-09-07T00:46:28.193Z,7.32
2022-09-07T00:48:55.178Z,7.30
2022-09-07T00:51:32.053Z,6.70
2022-09-07T00:54:04.335Z,7.50
2022-09-07T00:56:36.831Z,7.68
2022-09-07T00:59:05.145Z,7.05
2022-09-07T01:01:34.184Z,6.90
2022-09-07T01:04:03.101Z,7.10
2022-09-07T01:06:34.271Z,6.93
2022-09-07T01:09:19.720Z,6.45
2022-09-07T01:11:51.116Z,7.10
2022-09-07T01:14:34.747Z,7.43
2022-09-07T01:17:23.731Z,6.90
2022-09-07T01:20:11.964Z,6.60
2022-09-07T01:22:47.726Z,7.05
2022-09-07T01:25:35.943Z,7.20
2022-09-07T01:28:05.906Z,6.82
2022-09-07T01:30:38.216Z,7.68
2022-09-07T01:33:35.604Z,7.18
2022-09-07T01:36:24.333Z,7.07
2022-09-07T01:39:02.571Z,7.25
2022-09-07T01:41:54.638Z,6.75
2022-09-07T01:44:39.427Z,6.05
2022-09-07T01:47:19.072Z,6.45
2022-09-07T01:49:52.355Z,5.72
2022-09-07T01:52:37.344Z,5.88
2022-09-07T01:55:14.946Z,4.45
2022-09-07T01:57:49.590Z,4.30
2022-09-07T02:00:19.260Z,3.38
2022-09-07T02:02:59.440Z,3.50
2022-09-07T02:05:41.415Z,3.80
2022-09-07T02:08:16.580Z,3.45
2022-09-07T02:10:51.876Z,3.65
2022-09-07T02:13:37.240Z,3.72
2022-09-07T02:16:20.512Z,3.72
2022-09-07T02:18:52.647Z,4.18
2022-09-07T02:21:23.851Z,4.15
2022-09-07T02:23:56.109Z,4.05
2022-09-07T02:26:25.672Z,4.22
2022-09-07T02:28:52.680Z,5.00
2022-09-07T02:31:20.084Z,4.55
2022-09-07T02:33:47.714Z,4.65
2022-09-07T02:36:19.984Z,4.38
2022-09-07T02:38:46.956Z,4.50
2022-09-07T02:41:34.844Z,5.07
2022-09-07T02:44:04.552Z,4.47
2022-09-07T02:46:50.183Z,4.75
2022-09-07T02:49:44.635Z,4.15
2022-09-07T02:52:14.348Z,4.30
2022-09-07T02:54:59.711Z,4.32
2022-09-07T02:57:47.888Z,4.65
2022-09-07T03:00:26.229Z,4.05
2022-09-07T03:03:20.951Z,4.28
2022-09-07T03:06:01.739Z,4.40
2022-09-07T03:08:47.216Z,4.22
2022-09-07T03:11:15.236Z,4.00
2022-09-07T03:13:42.224Z,4.45
2022-09-07T03:16:14.205Z,4.35
2022-09-07T03:18:43.135Z,4.03
2022-09-07T03:21:11.056Z,4.63
2022-09-07T03:23:38.367Z,4.22
2022-09-07T03:26:05.623Z,3.63
2022-09-07T03:28:32.571Z,4.15
2022-09-07T03:31:01.147Z,3.88
2022-09-07T03:33:28.119Z,3.78
2022-09-07T03:36:00.468Z,3.78
2022-09-07T03:38:27.551Z,4.10
2022-09-07T03:41:07.741Z,4.43
2022-09-07T03:43:34.952Z,3.60
2022-09-07T03:46:06.360Z,4.75
2022-09-07T03:48:34.917Z,4.18
2022-09-07T03:51:04.875Z,4.10
2022-09-07T03:53:36.418Z,3.72
2022-09-07T03:56:13.399Z,4.25
2022-09-07T03:58:40.499Z,3.78
2022-09-07T04:01:10.031Z,3.95
2022-09-07T04:03:37.710Z,4.20
2022-09-07T04:06:05.428Z,3.83
2022-09-07T04:08:34.783Z,3.80
2022-09-07T04:11:03.834Z,4.32
2022-09-07T04:13:31.988Z,4.45
2022-09-07T04:15:58.964Z,4.13
2022-09-07T04:18:26.141Z,4.35
2022-09-07T04:20:53.074Z,4.60
2022-09-07T04:23:20.487Z,4.63
2022-09-07T04:25:52.012Z,4.60
2022-09-07T04:28:20.570Z,4.68
2022-09-07T04:30:48.146Z,5.03
2022-09-07T04:33:15.559Z,4.90
2022-09-07T04:35:42.818Z,4.97
2022-09-07T04:38:14.610Z,4.72
2022-09-07T04:40:42.016Z,5.22
2022-09-07T04:43:09.667Z,4.90
2022-09-07T04:45:37.695Z,5.40
2022-09-07T04:48:05.778Z,5.20
2022-09-07T04:50:33.269Z,4.97
2022-09-07T04:53:00.433Z,4.78
2022-09-07T04:55:27.412Z,4.95
2022-09-07T04:57:54.376Z,4.90
2022-09-07T05:00:21.427Z,5.00
2022-09-07T05:02:48.412Z,6.18
2022-09-07T05:05:15.485Z,6.03
2022-09-07T05:07:42.499Z,5.10
2022-09-07T05:10:09.547Z,5.43
2022-09-07T05:12:36.527Z,6.00
2022-09-07T05:15:04.218Z,6.03
2022-09-07T05:17:31.307Z,5.45
2022-09-07T05:19:58.701Z,4.95
2022-09-07T05:22:25.690Z,5.40
2022-09-07T05:24:52.732Z,5.80
2022-09-07T05:27:19.739Z,8.30
2022-09-07T05:30:03.871Z,8.07
2022-09-07T05:32:32.135Z,6.43
2022-09-07T05:34:59.108Z,5.38
2022-09-07T05:37:26.075Z,5.45
2022-09-07T05:39:55.137Z,5.90
2022-09-07T05:42:22.746Z,6.35
2022-09-07T05:44:49.713Z,6.15
2022-09-07T05:47:16.732Z,6.05
2022-09-07T05:49:43.707Z,7.07
2022-09-07T05:52:10.715Z,8.00
2022-09-07T05:54:37.777Z,10.40
2022-09-07T05:57:04.971Z,11.27
2022-09-07T05:59:32.160Z,8.02
2022-09-07T06:02:00.043Z,7.30
2022-09-07T06:04:27.082Z,6.57
2022-09-07T06:12:28.408Z,7.13
2022-09-07T06:14:55.458Z,6.68
2022-09-07T06:17:22.468Z,8.00
2022-09-07T06:19:49.440Z,6.30
2022-09-07T06:22:16.385Z,7.35
2022-09-07T06:24:43.346Z,6.35
2022-09-07T06:27:10.454Z,6.70
2022-09-07T06:29:37.615Z,7.57
2022-09-07T06:34:51.999Z,6.82
2022-09-07T06:37:21.216Z,7.65
2022-09-07T06:39:49.408Z,6.35
2022-09-07T06:42:16.819Z,6.18
2022-09-07T06:44:44.575Z,5.53
2022-09-07T06:47:11.646Z,6.70
2022-09-07T06:49:38.628Z,6.50
2022-09-07T06:52:05.594Z,7.05
2022-09-07T06:57:19.485Z,5.30
2022-09-07T06:59:46.476Z,4.72
2022-09-07T07:02:16.026Z,6.15
2022-09-07T07:04:42.933Z,6.07
2022-09-07T07:07:12.102Z,5.15
2022-09-07T07:09:39.843Z,6.07
2022-09-07T07:12:07.086Z,5.78
2022-09-07T07:14:37.263Z,5.55
2022-09-07T07:17:06.877Z,5.10
2022-09-07T07:19:33.875Z,4.80
2022-09-07T07:24:47.915Z,5.63
2022-09-07T07:27:14.837Z,5.57
2022-09-07T07:29:41.784Z,5.93
2022-09-07T07:32:08.869Z,5.93
2022-09-07T07:34:35.840Z,6.18
2022-09-07T07:37:02.790Z,6.20
2022-09-07T07:42:16.726Z,8.52
2022-09-07T07:44:43.810Z,8.13
2022-09-07T07:47:11.068Z,9.07
2022-09-07T07:49:38.397Z,10.43
2022-09-07T07:54:53.233Z,8.15
2022-09-07T07:57:20.425Z,8.05
2022-09-07T07:59:47.363Z,8.70
2022-09-07T08:02:16.958Z,5.82
2022-09-07T08:04:44.266Z,5.30
2022-09-07T08:07:14.443Z,6.85
2022-09-07T08:09:43.166Z,8.93
2022-09-07T08:12:13.056Z,8.60
2022-09-07T08:14:41.592Z,7.13
2022-09-07T08:17:11.166Z,7.15
2022-09-07T08:19:38.483Z,7.22
2022-09-07T08:22:06.291Z,7.30
2022-09-07T08:24:33.523Z,7.55
2022-09-07T08:27:00.950Z,7.10
2022-09-07T08:29:31.281Z,7.82
2022-09-07T08:32:00.847Z,7.90
2022-09-07T08:34:27.767Z,7.88
2022-09-07T08:36:54.924Z,8.60
2022-09-07T08:39:21.848Z,9.32
2022-09-07T08:42:09.570Z,7.45
2022-09-07T08:44:44.848Z,8.40
2022-09-07T08:47:33.779Z,8.65
2022-09-07T08:50:21.988Z,9.63
2022-09-07T08:52:51.342Z,8.70
2022-09-07T08:55:26.875Z,9.48
2022-09-07T08:58:45.226Z,8.75
2022-09-07T09:01:33.345Z,9.90
2022-09-07T09:04:17.551Z,8.02
2022-09-07T09:07:10.538Z,7.95
2022-09-07T09:09:56.263Z,8.82
2022-09-07T09:12:26.221Z,8.32
2022-09-07T09:15:21.168Z,9.45
2022-09-07T09:18:14.506Z,9.05
2022-09-07T09:23:26.029Z,9.85
2022-09-07T09:25:55.241Z,9.73
2022-09-07T09:28:24.656Z,9.80
2022-09-07T09:30:53.502Z,8.02
2022-09-07T09:33:28.999Z,8.98
2022-09-07T09:36:00.637Z,9.00
2022-09-07T09:38:33.641Z,8.55
2022-09-07T09:41:20.972Z,8.70
2022-09-07T09:43:58.215Z,9.20
2022-09-07T09:46:37.003Z,9.20
2022-09-07T09:49:15.805Z,6.60
2022-09-07T09:54:37.223Z,7.85
2022-09-07T09:57:04.447Z,8.48
2022-09-07T10:05:34.871Z,6.70
2022-09-07T10:08:02.890Z,6.80
2022-09-07T10:10:31.453Z,7.88
2022-09-07T10:12:59.374Z,6.68
2022-09-07T10:15:40.905Z,7.15
2022-09-07T10:18:37.459Z,7.07
2022-09-07T10:21:25.143Z,7.18
2022-09-07T10:24:16.040Z,6.95
2022-09-07T10:26:48.607Z,6.95
2022-09-07T10:29:36.095Z,7.78
2022-09-07T10:32:33.526Z,6.30
2022-09-07T10:35:25.193Z,7.40
2022-09-07T10:37:57.669Z,5.40
2022-09-07T10:41:10.054Z,6.57
2022-09-07T10:43:52.053Z,6.03
2022-09-07T10:46:56.695Z,5.82
2022-09-07T10:50:21.811Z,4.95
2022-09-07T10:52:49.324Z,5.28
2022-09-07T10:55:54.065Z,5.68
2022-09-07T10:59:04.486Z,5.40
2022-09-07T11:01:43.689Z,4.15
2022-09-07T11:04:13.377Z,4.10
2022-09-07T11:06:43.728Z,4.10
2022-09-07T11:09:26.458Z,3.50
2022-09-07T11:12:26.035Z,4.55
2022-09-07T11:15:12.180Z,4.22
2022-09-07T11:17:59.792Z,3.30
2022-09-07T11:20:50.773Z,3.65
2022-09-07T11:23:20.242Z,3.60
2022-09-07T11:26:17.648Z,3.58
2022-09-07T11:28:47.145Z,3.58
2022-09-07T11:31:30.668Z,4.00
2022-09-07T11:37:02.781Z,3.22
2022-09-07T11:39:38.390Z,3.22
2022-09-07T11:45:23.153Z,3.40
2022-09-07T11:48:19.621Z,3.45
2022-09-07T11:50:57.490Z,3.38
2022-09-07T11:53:28.678Z,3.45
2022-09-07T11:56:00.827Z,3.30
2022-09-07T11:59:12.345Z,3.60
2022-09-07T12:01:57.069Z,3.47
2022-09-07T12:04:46.793Z,3.70
2022-09-07T12:07:23.463Z,3.30
2022-09-07T12:10:33.525Z,3.35
2022-09-07T12:13:31.924Z,3.92
2022-09-07T12:16:04.419Z,3.60
2022-09-07T12:18:56.060Z,3.53
2022-09-07T12:21:32.360Z,4.57
2022-09-07T12:23:59.472Z,3.75
2022-09-07T12:26:38.211Z,3.58
2022-09-07T12:29:20.342Z,3.70
2022-09-07T12:31:59.231Z,3.83
2022-09-07T12:34:52.413Z,3.70
2022-09-07T12:37:40.342Z,4.18
2022-09-07T12:40:33.228Z,3.28
2022-09-07T12:43:15.511Z,3.58
2022-09-07T12:45:42.510Z,4.05
2022-09-07T12:48:15.436Z,3.80
2022-09-07T12:53:29.022Z,3.83
2022-09-07T12:56:23.251Z,3.83
2022-09-07T12:59:02.102Z,3.70
2022-09-07T13:01:55.869Z,3.90
2022-09-07T13:04:29.018Z,4.88
2022-09-07T13:12:01.143Z,3.70
2022-09-07T13:14:29.638Z,3.92
2022-09-07T13:17:38.792Z,4.10
2022-09-07T13:20:18.831Z,4.13
2022-09-07T13:22:45.751Z,4.63
2022-09-07T13:25:20.273Z,4.88
2022-09-07T13:28:05.995Z,4.43
2022-09-07T13:30:38.846Z,4.32
2022-09-07T13:33:24.450Z,4.68
2022-09-07T13:35:54.664Z,4.32
2022-09-07T13:38:22.497Z,5.07
2022-09-07T13:40:52.317Z,4.47
2022-09-07T13:43:24.461Z,4.43
2022-09-07T13:45:54.243Z,5.78
2022-09-07T13:48:37.271Z,4.72
2022-09-07T13:51:37.810Z,4.85
2022-09-07T13:54:17.070Z,4.90
2022-09-07T13:57:02.675Z,5.40
2022-09-07T13:59:33.815Z,5.40
2022-09-07T14:02:01.788Z,5.22
2022-09-07T14:04:40.392Z,4.88
2022-09-07T14:07:16.835Z,4.57
2022-09-07T14:09:43.772Z,4.80
2022-09-07T14:12:20.175Z,5.05
2022-09-07T14:15:17.434Z,4.90
2022-09-07T14:17:45.618Z,4.40
2022-09-07T14:20:15.544Z,4.78
2022-09-07T14:22:43.343Z,5.05
2022-09-07T14:25:19.030Z,4.07
2022-09-07T14:27:47.951Z,4.50
2022-09-07T14:30:28.132Z,4.55
2022-09-07T14:33:02.764Z,4.35
2022-09-07T14:35:34.344Z,5.20
2022-09-07T14:41:38.531Z,4.03
2022-09-07T14:44:06.442Z,4.55
2022-09-07T14:46:34.346Z,4.50
2022-09-07T14:49:20.111Z,4.50
2022-09-07T14:51:48.382Z,4.22
2022-09-07T14:54:27.877Z,4.78
2022-09-07T14:57:01.855Z,5.95
2022-09-07T14:59:46.975Z,4.63
2022-09-07T15:02:22.011Z,4.15
2022-09-07T15:05:10.212Z,4.78
2022-09-07T15:07:45.241Z,4.30
2022-09-07T15:10:23.557Z,4.57
2022-09-07T15:12:54.770Z,4.90
2022-09-07T15:15:28.681Z,4.13
2022-09-07T15:18:01.854Z,4.57
2022-09-07T15:20:44.111Z,4.38
2022-09-07T15:23:16.651Z,4.90
2022-09-07T15:25:50.927Z,4.40
2022-09-07T15:34:17.794Z,5.32
2022-09-07T15:36:50.865Z,4.70
2022-09-07T15:41:59.024Z,3.90
2022-09-07T15:44:28.608Z,4.72
2022-09-07T15:49:47.714Z,4.72
2022-09-07T15:52:17.854Z,5.70
2022-09-07T15:54:45.059Z,4.45
2022-09-07T15:59:59.028Z,4.95
2022-09-07T16:05:13.749Z,5.10
2022-09-07T16:10:31.628Z,5.97
2022-09-07T16:13:01.982Z,5.28
2022-09-07T16:15:29.945Z,6.10
2022-09-07T16:17:57.068Z,5.57
2022-09-07T16:20:24.123Z,5.40
2022-09-07T16:25:39.597Z,5.28
2022-09-07T16:28:07.213Z,5.93
2022-09-07T16:30:34.444Z,5.70
2022-09-07T16:33:01.542Z,14.13
2022-09-07T16:35:28.507Z,5.68
2022-09-07T16:40:43.607Z,6.57
2022-09-07T16:43:10.602Z,5.85
2022-09-07T16:48:24.460Z,5.70
2022-09-07T16:50:56.574Z,5.50
2022-09-07T16:53:32.283Z,5.93
2022-09-07T16:56:08.959Z,5.80
2022-09-07T16:58:39.630Z,8.10
2022-09-07T17:01:08.582Z,6.80
2022-09-07T17:03:39.398Z,6.00
2022-09-07T17:06:08.369Z,6.30
2022-09-07T17:08:36.548Z,6.85
2022-09-07T17:11:11.051Z,8.48
2022-09-07T17:13:39.685Z,6.40
2022-09-07T17:16:15.504Z,6.20
2022-09-07T17:21:33.290Z,7.65
2022-09-07T17:24:03.797Z,7.63
2022-09-07T17:26:32.111Z,6.35
2022-09-07T17:29:01.067Z,7.35
2022-09-07T17:34:20.251Z,6.97
2022-09-07T17:36:47.903Z,8.85
2022-09-07T17:39:17.250Z,6.78
2022-09-07T17:41:46.646Z,5.93
2022-09-07T17:44:13.792Z,6.70
2022-09-07T17:46:40.767Z,6.13
2022-09-07T17:49:12.229Z,6.95
2022-09-07T17:51:39.751Z,6.05
2022-09-07T17:54:11.586Z,7.00
2022-09-07T17:56:40.139Z,6.15
2022-09-07T18:01:55.221Z,7.57
2022-09-07T18:04:22.856Z,6.00
2022-09-07T18:06:50.084Z,6.95
2022-09-07T18:09:17.076Z,6.57
2022-09-07T18:11:45.813Z,7.05
2022-09-07T18:14:14.603Z,7.05
2022-09-07T18:16:42.757Z,6.22
2022-09-07T18:19:11.615Z,6.50
2022-09-07T18:21:41.040Z,6.50
2022-09-07T18:24:21.775Z,7.05
2022-09-07T18:26:51.982Z,6.78
2022-09-07T18:29:32.518Z,6.90
2022-09-07T18:32:08.720Z,6.38
2022-09-07T18:34:37.694Z,6.88
2022-09-07T18:37:05.273Z,7.15
2022-09-07T18:39:33.513Z,7.00
2022-09-07T18:42:00.542Z,7.57
2022-09-07T18:47:22.268Z,6.10
2022-09-07T18:49:51.720Z,8.15
2022-09-07T18:55:08.643Z,7.03
2022-09-07T18:57:36.540Z,6.75
2022-09-07T19:00:09.085Z,6.35
2022-09-07T19:02:36.680Z,7.07
2022-09-07T19:07:51.151Z,7.47
2022-09-07T19:10:18.118Z,7.50
2022-09-07T19:12:46.309Z,13.20
2022-09-07T19:15:14.356Z,12.82
2022-09-07T19:17:41.403Z,11.90
2022-09-07T19:20:08.962Z,9.57
2022-09-07T19:22:36.022Z,8.77
2022-09-07T19:25:03.096Z,7.40
2022-09-07T19:27:32.844Z,7.18
2022-09-07T19:29:59.849Z,8.45
2022-09-07T19:32:26.872Z,7.15
2022-09-07T19:34:54.826Z,7.95
2022-09-07T19:37:26.061Z,7.53
2022-09-07T19:39:56.843Z,8.15
2022-09-07T19:42:25.180Z,7.60
2022-09-07T19:44:53.859Z,7.68
2022-09-07T19:47:21.424Z,7.45
2022-09-07T19:49:49.184Z,7.07
2022-09-07T19:52:16.593Z,7.22
2022-09-07T19:54:43.883Z,7.20
2022-09-07T19:57:10.795Z,7.70
2022-09-07T19:59:37.719Z,8.52
2022-09-07T20:02:06.164Z,7.50
2022-09-07T20:04:33.135Z,8.32
2022-09-07T20:07:00.358Z,8.98
2022-09-07T20:09:27.317Z,8.23
2022-09-07T20:11:54.262Z,8.48
2022-09-07T20:14:21.264Z,7.70
2022-09-07T20:16:48.219Z,7.50
2022-09-07T20:19:15.340Z,7.50
2022-09-07T20:21:42.746Z,8.15
2022-09-07T20:24:12.335Z,7.22
2022-09-07T20:26:39.870Z,7.93
2022-09-07T20:31:54.210Z,8.63
2022-09-07T20:34:21.283Z,8.73
2022-09-07T20:36:51.743Z,7.63
2022-09-07T20:39:19.665Z,8.43
2022-09-07T20:41:47.019Z,7.95
2022-09-07T20:44:14.875Z,7.22
2022-09-07T20:46:42.044Z,7.75
2022-09-07T20:49:09.591Z,8.13
2022-09-07T20:51:36.654Z,10.80
2022-09-07T20:54:03.768Z,10.35
2022-09-07T20:56:30.860Z,8.63
2022-09-07T20:59:00.229Z,8.80
2022-09-07T21:01:29.099Z,8.20
2022-09-07T21:03:58.087Z,8.38
2022-09-07T21:06:26.747Z,7.88
2022-09-07T21:08:54.982Z,9.23
2022-09-07T21:11:27.846Z,8.10
2022-09-07T21:14:08.387Z,8.40
2022-09-07T21:16:36.404Z,8.63
2022-09-07T21:19:06.890Z,7.47
2022-09-07T21:21:38.891Z,8.18
2022-09-07T21:24:07.453Z,8.32
2022-09-07T21:26:34.356Z,8.32
2022-09-07T21:29:03.690Z,7.95
2022-09-07T21:31:32.393Z,9.20
2022-09-07T21:34:01.332Z,8.90
2022-09-07T21:36:28.960Z,8.20
2022-09-07T21:38:55.915Z,8.73
2022-09-07T21:41:24.842Z,7.75
2022-09-07T21:43:59.858Z,8.40
2022-09-07T21:46:28.598Z,8.38
2022-09-07T21:48:57.182Z,8.32
2022-09-07T21:51:24.715Z,8.43
2022-09-07T21:54:00.182Z,8.73
2022-09-07T21:56:29.076Z,8.07
2022-09-07T21:58:58.125Z,8.38
2022-09-07T22:01:27.136Z,8.73
2022-09-07T22:03:59.539Z,8.77
2022-09-07T22:06:30.124Z,7.78
2022-09-07T22:08:58.673Z,7.40
2022-09-07T22:11:28.418Z,7.82
2022-09-07T22:14:04.271Z,8.05
2022-09-07T22:16:33.111Z,6.95
2022-09-07T22:19:00.992Z,7.32
2022-09-07T22:21:29.455Z,6.47
2022-09-07T22:23:59.217Z,7.40
2022-09-07T22:26:29.081Z,6.43
2022-09-07T22:28:56.091Z,6.50
2022-09-07T22:31:26.248Z,6.72
2022-09-07T22:33:54.831Z,5.60
2022-09-07T22:36:24.189Z,5.65
2022-09-07T22:38:53.764Z,6.38
2022-09-07T22:41:23.369Z,6.55
2022-09-07T22:43:51.069Z,7.07
2022-09-07T22:46:20.319Z,6.40
2022-09-07T22:48:48.045Z,6.70
2022-09-07T22:51:15.695Z,5.65
2022-09-07T22:53:44.027Z,5.85
2022-09-07T22:56:16.785Z,5.47
2022-09-07T22:58:50.144Z,6.10
2022-09-07T23:01:17.539Z,5.28
2022-09-07T23:03:45.085Z,5.50
2022-09-07T23:06:33.152Z,6.40
2022-09-07T23:09:03.525Z,7.28
2022-09-07T23:11:30.646Z,5.57
2022-09-07T23:13:59.969Z,5.53
2022-09-07T23:16:28.076Z,5.93
2022-09-07T23:18:57.002Z,6.07
2022-09-07T23:21:23.962Z,5.65
2022-09-07T23:23:55.873Z,6.28
2022-09-07T23:26:24.208Z,5.45
2022-09-07T23:28:55.755Z,6.03
2022-09-07T23:31:23.726Z,6.18
2022-09-07T23:33:50.955Z,5.97
2022-09-07T23:36:18.622Z,5.60
2022-09-07T23:38:46.409Z,5.57
2022-09-07T23:41:17.825Z,5.78
2022-09-07T23:43:45.235Z,5.15
2022-09-07T23:46:13.541Z,5.18
2022-09-07T23:48:42.632Z,5.30
2022-09-07T23:51:09.820Z,5.22
2022-09-07T23:53:36.795Z,5.10
2022-09-07T23:56:04.192Z,5.47
2022-09-07T23:58:31.301Z,5.22
